Rechercher aéroport 
image banner adimage banner adimage banner ad
image banner ad

1CL5 - Pomerado Hospital

Situé à Poway, United States

ICAO - 1CL5, IATA -

Données fournies par Airmate  

Information générale

Coordonnées: N32°59'46" W117°3'20"
Élévation : 653 feet MSL.
Variation magnétique : 14° East
Voir autres Aéroports à California

Données opérationnelles

Special qualification required
Heure actuelle UTC:
Heure actuelle locale:
Météo à : KRNM - Ramona ( 14 km )
METAR: KRNM 251218Z AUTO 00000KT 6SM BR BKN006 BKN013 OVC120 17/16 A2998 RMK AO2 T01720161
Voir NOTAMs / SUP AIP / TFR affectant cet aéroport [VIEW]
Fréquences de communication: [VIEW]

Pistes:

Coordonnées de l'aéroport

Adresse: Poway United States

Vue satellite de 1CL5